sensor_id;sensor_type;location;lat;lon;timestamp;P1;durP1;ratioP1;P2;durP2;ratioP2
45764;SDS011;31474;45.332;10.230;2023-02-28T00:00:09;8.32;;;5.50;;
45764;SDS011;31474;45.332;10.230;2023-02-28T00:02:37;8.20;;;4.68;;
45764;SDS011;31474;45.332;10.230;2023-02-28T00:05:03;9.05;;;4.78;;
45764;SDS011;31474;45.332;10.230;2023-02-28T00:07:30;7.65;;;5.10;;
45764;SDS011;31474;45.332;10.230;2023-02-28T00:09:56;6.03;;;4.47;;
45764;SDS011;31474;45.332;10.230;2023-02-28T00:12:22;7.05;;;4.50;;
45764;SDS011;31474;45.332;10.230;2023-02-28T00:14:48;6.70;;;3.88;;
45764;SDS011;31474;45.332;10.230;2023-02-28T00:17:14;6.32;;;3.70;;
45764;SDS011;31474;45.332;10.230;2023-02-28T00:19:39;10.07;;;4.80;;
45764;SDS011;31474;45.332;10.230;2023-02-28T00:22:05;4.57;;;3.55;;
45764;SDS011;31474;45.332;10.230;2023-02-28T00:24:31;7.38;;;4.50;;
45764;SDS011;31474;45.332;10.230;2023-02-28T00:26:56;6.93;;;4.43;;
45764;SDS011;31474;45.332;10.230;2023-02-28T00:29:22;8.05;;;5.05;;
45764;SDS011;31474;45.332;10.230;2023-02-28T00:31:48;6.88;;;4.65;;
45764;SDS011;31474;45.332;10.230;2023-02-28T00:34:13;8.73;;;5.20;;
45764;SDS011;31474;45.332;10.230;2023-02-28T00:36:39;7.82;;;4.93;;
45764;SDS011;31474;45.332;10.230;2023-02-28T00:39:08;6.10;;;4.20;;
45764;SDS011;31474;45.332;10.230;2023-02-28T00:41:34;9.07;;;4.55;;
45764;SDS011;31474;45.332;10.230;2023-02-28T00:43:59;6.13;;;4.85;;
45764;SDS011;31474;45.332;10.230;2023-02-28T00:46:25;7.00;;;4.15;;
45764;SDS011;31474;45.332;10.230;2023-02-28T00:48:51;9.88;;;5.47;;
45764;SDS011;31474;45.332;10.230;2023-02-28T00:51:16;6.75;;;4.20;;
45764;SDS011;31474;45.332;10.230;2023-02-28T00:53:42;6.75;;;4.63;;
45764;SDS011;31474;45.332;10.230;2023-02-28T00:56:09;7.05;;;4.55;;
45764;SDS011;31474;45.332;10.230;2023-02-28T00:58:34;7.47;;;4.68;;
45764;SDS011;31474;45.332;10.230;2023-02-28T01:01:00;5.95;;;4.43;;
45764;SDS011;31474;45.332;10.230;2023-02-28T01:03:26;6.45;;;4.60;;
45764;SDS011;31474;45.332;10.230;2023-02-28T01:05:51;9.52;;;5.15;;
45764;SDS011;31474;45.332;10.230;2023-02-28T01:08:20;9.43;;;4.90;;
45764;SDS011;31474;45.332;10.230;2023-02-28T01:10:46;7.22;;;4.43;;
45764;SDS011;31474;45.332;10.230;2023-02-28T01:13:12;5.85;;;4.10;;
45764;SDS011;31474;45.332;10.230;2023-02-28T01:15:40;9.05;;;5.55;;
45764;SDS011;31474;45.332;10.230;2023-02-28T01:18:09;9.05;;;4.00;;
45764;SDS011;31474;45.332;10.230;2023-02-28T01:20:38;9.00;;;4.70;;
45764;SDS011;31474;45.332;10.230;2023-02-28T01:23:03;7.72;;;4.47;;
45764;SDS011;31474;45.332;10.230;2023-02-28T01:25:29;5.75;;;4.40;;
45764;SDS011;31474;45.332;10.230;2023-02-28T01:27:54;7.93;;;4.13;;
45764;SDS011;31474;45.332;10.230;2023-02-28T01:30:20;7.65;;;5.03;;
45764;SDS011;31474;45.332;10.230;2023-02-28T01:32:46;8.50;;;4.68;;
45764;SDS011;31474;45.332;10.230;2023-02-28T01:35:11;7.90;;;4.60;;
45764;SDS011;31474;45.332;10.230;2023-02-28T01:37:37;9.38;;;5.60;;
45764;SDS011;31474;45.332;10.230;2023-02-28T01:40:03;9.98;;;4.78;;
45764;SDS011;31474;45.332;10.230;2023-02-28T01:42:29;8.25;;;5.47;;
45764;SDS011;31474;45.332;10.230;2023-02-28T01:47:27;6.85;;;5.40;;
45764;SDS011;31474;45.332;10.230;2023-02-28T01:49:56;8.80;;;5.90;;
45764;SDS011;31474;45.332;10.230;2023-02-28T01:52:23;7.53;;;5.10;;
45764;SDS011;31474;45.332;10.230;2023-02-28T01:54:54;9.02;;;5.78;;
45764;SDS011;31474;45.332;10.230;2023-02-28T01:57:26;15.50;;;5.55;;
45764;SDS011;31474;45.332;10.230;2023-02-28T02:00:24;9.55;;;4.53;;
45764;SDS011;31474;45.332;10.230;2023-02-28T02:02:52;8.80;;;5.53;;
45764;SDS011;31474;45.332;10.230;2023-02-28T02:05:24;5.53;;;4.28;;
45764;SDS011;31474;45.332;10.230;2023-02-28T02:07:57;9.10;;;5.97;;
45764;SDS011;31474;45.332;10.230;2023-02-28T02:10:30;9.93;;;6.07;;
45764;SDS011;31474;45.332;10.230;2023-02-28T02:18:41;8.43;;;5.88;;
45764;SDS011;31474;45.332;10.230;2023-02-28T02:26:52;9.43;;;5.72;;
45764;SDS011;31474;45.332;10.230;2023-02-28T02:34:48;9.93;;;6.03;;
45764;SDS011;31474;45.332;10.230;2023-02-28T02:37:27;9.07;;;5.18;;
45764;SDS011;31474;45.332;10.230;2023-02-28T02:40:14;8.55;;;5.63;;
45764;SDS011;31474;45.332;10.230;2023-02-28T02:45:19;7.95;;;5.30;;
45764;SDS011;31474;45.332;10.230;2023-02-28T02:47:50;9.45;;;5.70;;
45764;SDS011;31474;45.332;10.230;2023-02-28T02:50:22;7.65;;;5.28;;
45764;SDS011;31474;45.332;10.230;2023-02-28T02:52:53;10.85;;;6.10;;
45764;SDS011;31474;45.332;10.230;2023-02-28T02:55:23;13.18;;;5.47;;
45764;SDS011;31474;45.332;10.230;2023-02-28T02:57:53;9.85;;;6.20;;
45764;SDS011;31474;45.332;10.230;2023-02-28T03:00:25;8.00;;;5.07;;
45764;SDS011;31474;45.332;10.230;2023-02-28T03:02:56;9.00;;;5.80;;
45764;SDS011;31474;45.332;10.230;2023-02-28T03:05:26;6.70;;;5.10;;
45764;SDS011;31474;45.332;10.230;2023-02-28T03:07:55;7.60;;;5.67;;
45764;SDS011;31474;45.332;10.230;2023-02-28T03:16:21;8.68;;;6.13;;
45764;SDS011;31474;45.332;10.230;2023-02-28T03:22:07;9.13;;;5.18;;
45764;SDS011;31474;45.332;10.230;2023-02-28T03:24:56;7.97;;;4.60;;
45764;SDS011;31474;45.332;10.230;2023-02-28T03:30:30;6.43;;;5.00;;
45764;SDS011;31474;45.332;10.230;2023-02-28T03:36:12;6.72;;;4.95;;
45764;SDS011;31474;45.332;10.230;2023-02-28T03:38:51;10.25;;;5.78;;
45764;SDS011;31474;45.332;10.230;2023-02-28T03:41:20;8.23;;;5.38;;
45764;SDS011;31474;45.332;10.230;2023-02-28T03:43:56;7.88;;;5.75;;
45764;SDS011;31474;45.332;10.230;2023-02-28T03:46:29;10.98;;;6.15;;
45764;SDS011;31474;45.332;10.230;2023-02-28T03:51:40;13.05;;;6.50;;
45764;SDS011;31474;45.332;10.230;2023-02-28T03:54:09;7.63;;;5.13;;
45764;SDS011;31474;45.332;10.230;2023-02-28T03:56:52;11.50;;;6.10;;
45764;SDS011;31474;45.332;10.230;2023-02-28T03:59:42;11.60;;;5.53;;
45764;SDS011;31474;45.332;10.230;2023-02-28T04:02:12;8.50;;;5.78;;
45764;SDS011;31474;45.332;10.230;2023-02-28T04:04:37;12.30;;;6.22;;
45764;SDS011;31474;45.332;10.230;2023-02-28T04:07:07;8.77;;;5.40;;
45764;SDS011;31474;45.332;10.230;2023-02-28T04:09:33;11.23;;;6.43;;
45764;SDS011;31474;45.332;10.230;2023-02-28T04:11:59;10.30;;;5.25;;
45764;SDS011;31474;45.332;10.230;2023-02-28T04:14:25;12.63;;;5.90;;
45764;SDS011;31474;45.332;10.230;2023-02-28T04:16:51;11.07;;;6.00;;
45764;SDS011;31474;45.332;10.230;2023-02-28T04:19:17;9.07;;;5.70;;
45764;SDS011;31474;45.332;10.230;2023-02-28T04:21:45;12.77;;;6.70;;
45764;SDS011;31474;45.332;10.230;2023-02-28T04:24:16;8.35;;;5.03;;
45764;SDS011;31474;45.332;10.230;2023-02-28T04:26:47;11.27;;;6.85;;
45764;SDS011;31474;45.332;10.230;2023-02-28T04:29:19;10.90;;;6.18;;
45764;SDS011;31474;45.332;10.230;2023-02-28T04:31:46;8.07;;;5.43;;
45764;SDS011;31474;45.332;10.230;2023-02-28T04:34:12;12.40;;;6.55;;
45764;SDS011;31474;45.332;10.230;2023-02-28T04:36:38;9.07;;;4.82;;
45764;SDS011;31474;45.332;10.230;2023-02-28T04:39:04;8.57;;;5.68;;
45764;SDS011;31474;45.332;10.230;2023-02-28T04:41:30;8.85;;;5.30;;
45764;SDS011;31474;45.332;10.230;2023-02-28T04:43:55;12.57;;;6.43;;
45764;SDS011;31474;45.332;10.230;2023-02-28T04:46:21;8.05;;;5.60;;
45764;SDS011;31474;45.332;10.230;2023-02-28T04:48:47;12.52;;;6.32;;
45764;SDS011;31474;45.332;10.230;2023-02-28T04:51:14;7.18;;;5.15;;
45764;SDS011;31474;45.332;10.230;2023-02-28T04:53:42;10.10;;;5.88;;
45764;SDS011;31474;45.332;10.230;2023-02-28T04:56:09;8.55;;;4.88;;
45764;SDS011;31474;45.332;10.230;2023-02-28T04:58:37;13.35;;;5.82;;
45764;SDS011;31474;45.332;10.230;2023-02-28T05:01:03;9.85;;;6.32;;
45764;SDS011;31474;45.332;10.230;2023-02-28T05:03:40;11.70;;;5.90;;
45764;SDS011;31474;45.332;10.230;2023-02-28T05:06:07;8.75;;;5.32;;
45764;SDS011;31474;45.332;10.230;2023-02-28T05:08:34;10.48;;;6.07;;
45764;SDS011;31474;45.332;10.230;2023-02-28T05:11:00;7.63;;;5.82;;
45764;SDS011;31474;45.332;10.230;2023-02-28T05:13:26;10.82;;;6.18;;
45764;SDS011;31474;45.332;10.230;2023-02-28T05:15:53;7.50;;;5.57;;
45764;SDS011;31474;45.332;10.230;2023-02-28T05:18:18;10.25;;;6.95;;
45764;SDS011;31474;45.332;10.230;2023-02-28T05:20:44;7.80;;;5.20;;
45764;SDS011;31474;45.332;10.230;2023-02-28T05:23:13;8.57;;;5.13;;
45764;SDS011;31474;45.332;10.230;2023-02-28T05:25:41;8.38;;;4.75;;
45764;SDS011;31474;45.332;10.230;2023-02-28T05:28:06;10.32;;;6.32;;
45764;SDS011;31474;45.332;10.230;2023-02-28T05:30:32;9.07;;;4.72;;
45764;SDS011;31474;45.332;10.230;2023-02-28T05:32:58;9.05;;;5.93;;
45764;SDS011;31474;45.332;10.230;2023-02-28T05:35:24;7.75;;;4.80;;
45764;SDS011;31474;45.332;10.230;2023-02-28T05:37:50;9.00;;;5.70;;
45764;SDS011;31474;45.332;10.230;2023-02-28T05:40:16;8.73;;;4.43;;
45764;SDS011;31474;45.332;10.230;2023-02-28T05:42:42;9.27;;;5.03;;
45764;SDS011;31474;45.332;10.230;2023-02-28T05:45:08;8.10;;;5.18;;
45764;SDS011;31474;45.332;10.230;2023-02-28T05:47:34;15.15;;;7.15;;
45764;SDS011;31474;45.332;10.230;2023-02-28T05:50:00;9.88;;;6.38;;
45764;SDS011;31474;45.332;10.230;2023-02-28T05:52:26;11.73;;;6.68;;
45764;SDS011;31474;45.332;10.230;2023-02-28T05:54:53;7.20;;;4.88;;
45764;SDS011;31474;45.332;10.230;2023-02-28T05:57:18;13.40;;;6.25;;
45764;SDS011;31474;45.332;10.230;2023-02-28T05:59:44;13.35;;;7.40;;
45764;SDS011;31474;45.332;10.230;2023-02-28T06:02:14;16.23;;;7.65;;
45764;SDS011;31474;45.332;10.230;2023-02-28T06:04:41;10.57;;;6.47;;
45764;SDS011;31474;45.332;10.230;2023-02-28T06:07:08;11.10;;;5.78;;
45764;SDS011;31474;45.332;10.230;2023-02-28T06:09:34;8.02;;;4.68;;
45764;SDS011;31474;45.332;10.230;2023-02-28T06:12:00;9.68;;;4.85;;
45764;SDS011;31474;45.332;10.230;2023-02-28T06:14:30;7.20;;;4.90;;
45764;SDS011;31474;45.332;10.230;2023-02-28T06:16:57;10.80;;;5.57;;
45764;SDS011;31474;45.332;10.230;2023-02-28T06:19:24;6.70;;;4.68;;
45764;SDS011;31474;45.332;10.230;2023-02-28T06:21:52;7.53;;;5.65;;
45764;SDS011;31474;45.332;10.230;2023-02-28T06:24:22;8.98;;;6.13;;
45764;SDS011;31474;45.332;10.230;2023-02-28T06:26:48;10.20;;;6.03;;
45764;SDS011;31474;45.332;10.230;2023-02-28T06:29:15;13.57;;;8.05;;
45764;SDS011;31474;45.332;10.230;2023-02-28T06:31:42;13.02;;;7.25;;
45764;SDS011;31474;45.332;10.230;2023-02-28T06:34:09;15.35;;;8.55;;
45764;SDS011;31474;45.332;10.230;2023-02-28T06:36:36;11.43;;;7.05;;
45764;SDS011;31474;45.332;10.230;2023-02-28T06:39:03;16.67;;;8.35;;
45764;SDS011;31474;45.332;10.230;2023-02-28T06:41:29;10.57;;;6.82;;
45764;SDS011;31474;45.332;10.230;2023-02-28T06:43:54;13.63;;;8.07;;
45764;SDS011;31474;45.332;10.230;2023-02-28T06:46:20;12.68;;;7.65;;
45764;SDS011;31474;45.332;10.230;2023-02-28T06:48:46;12.38;;;8.23;;
45764;SDS011;31474;45.332;10.230;2023-02-28T06:51:13;14.35;;;7.55;;
45764;SDS011;31474;45.332;10.230;2023-02-28T06:53:42;10.98;;;7.53;;
45764;SDS011;31474;45.332;10.230;2023-02-28T06:56:09;14.02;;;8.07;;
45764;SDS011;31474;45.332;10.230;2023-02-28T06:58:37;15.55;;;7.45;;
45764;SDS011;31474;45.332;10.230;2023-02-28T07:01:04;13.85;;;8.60;;
45764;SDS011;31474;45.332;10.230;2023-02-28T07:03:30;13.60;;;8.55;;
45764;SDS011;31474;45.332;10.230;2023-02-28T07:05:56;12.57;;;8.13;;
45764;SDS011;31474;45.332;10.230;2023-02-28T07:08:22;14.35;;;8.05;;
45764;SDS011;31474;45.332;10.230;2023-02-28T07:10:55;23.52;;;11.95;;
45764;SDS011;31474;45.332;10.230;2023-02-28T07:13:21;15.98;;;9.32;;
45764;SDS011;31474;45.332;10.230;2023-02-28T07:16:01;17.20;;;8.82;;
45764;SDS011;31474;45.332;10.230;2023-02-28T07:18:29;15.15;;;7.70;;
45764;SDS011;31474;45.332;10.230;2023-02-28T07:20:54;11.73;;;8.23;;
45764;SDS011;31474;45.332;10.230;2023-02-28T07:23:20;16.00;;;8.38;;
45764;SDS011;31474;45.332;10.230;2023-02-28T07:25:47;12.98;;;7.95;;
45764;SDS011;31474;45.332;10.230;2023-02-28T07:28:13;13.98;;;7.68;;
45764;SDS011;31474;45.332;10.230;2023-02-28T07:30:39;13.50;;;8.85;;
45764;SDS011;31474;45.332;10.230;2023-02-28T07:33:05;11.07;;;7.78;;
45764;SDS011;31474;45.332;10.230;2023-02-28T07:35:30;11.40;;;6.90;;
45764;SDS011;31474;45.332;10.230;2023-02-28T07:37:59;14.98;;;7.90;;
45764;SDS011;31474;45.332;10.230;2023-02-28T07:40:26;12.77;;;6.05;;
45764;SDS011;31474;45.332;10.230;2023-02-28T07:42:51;15.18;;;6.47;;
45764;SDS011;31474;45.332;10.230;2023-02-28T07:45:17;10.63;;;5.22;;
45764;SDS011;31474;45.332;10.230;2023-02-28T07:47:44;9.35;;;5.13;;
45764;SDS011;31474;45.332;10.230;2023-02-28T07:50:11;7.72;;;5.50;;
45764;SDS011;31474;45.332;10.230;2023-02-28T07:52:38;10.98;;;5.07;;
45764;SDS011;31474;45.332;10.230;2023-02-28T07:55:05;7.25;;;5.38;;
45764;SDS011;31474;45.332;10.230;2023-02-28T07:57:32;8.73;;;5.75;;
45764;SDS011;31474;45.332;10.230;2023-02-28T07:59:58;9.57;;;5.03;;
45764;SDS011;31474;45.332;10.230;2023-02-28T08:02:23;8.73;;;5.00;;
45764;SDS011;31474;45.332;10.230;2023-02-28T08:04:49;9.18;;;5.85;;
45764;SDS011;31474;45.332;10.230;2023-02-28T08:07:15;9.32;;;5.82;;
45764;SDS011;31474;45.332;10.230;2023-02-28T08:09:41;8.05;;;5.43;;
45764;SDS011;31474;45.332;10.230;2023-02-28T08:12:07;8.35;;;5.20;;
45764;SDS011;31474;45.332;10.230;2023-02-28T08:14:33;7.70;;;5.38;;
45764;SDS011;31474;45.332;10.230;2023-02-28T08:16:59;6.47;;;4.53;;
45764;SDS011;31474;45.332;10.230;2023-02-28T08:19:25;7.88;;;5.45;;
45764;SDS011;31474;45.332;10.230;2023-02-28T08:21:51;7.22;;;4.82;;
45764;SDS011;31474;45.332;10.230;2023-02-28T08:24:17;8.85;;;5.82;;
45764;SDS011;31474;45.332;10.230;2023-02-28T08:26:42;6.75;;;4.47;;
45764;SDS011;31474;45.332;10.230;2023-02-28T08:29:08;7.57;;;5.28;;
45764;SDS011;31474;45.332;10.230;2023-02-28T08:31:34;8.23;;;4.78;;
45764;SDS011;31474;45.332;10.230;2023-02-28T08:34:04;8.10;;;4.40;;
45764;SDS011;31474;45.332;10.230;2023-02-28T08:36:33;10.68;;;5.22;;
45764;SDS011;31474;45.332;10.230;2023-02-28T08:38:59;9.20;;;4.75;;
45764;SDS011;31474;45.332;10.230;2023-02-28T08:41:25;9.40;;;6.38;;
45764;SDS011;31474;45.332;10.230;2023-02-28T08:43:51;7.50;;;5.00;;
45764;SDS011;31474;45.332;10.230;2023-02-28T08:46:16;6.53;;;4.88;;
45764;SDS011;31474;45.332;10.230;2023-02-28T08:48:42;6.60;;;4.65;;
45764;SDS011;31474;45.332;10.230;2023-02-28T08:51:11;5.80;;;4.53;;
45764;SDS011;31474;45.332;10.230;2023-02-28T08:53:47;8.77;;;5.38;;
45764;SDS011;31474;45.332;10.230;2023-02-28T08:56:14;9.27;;;5.50;;
45764;SDS011;31474;45.332;10.230;2023-02-28T08:58:43;6.85;;;5.05;;
45764;SDS011;31474;45.332;10.230;2023-02-28T09:01:10;11.30;;;5.85;;
45764;SDS011;31474;45.332;10.230;2023-02-28T09:03:41;10.15;;;5.65;;
45764;SDS011;31474;45.332;10.230;2023-02-28T09:06:07;9.30;;;5.72;;
45764;SDS011;31474;45.332;10.230;2023-02-28T09:08:34;9.35;;;5.70;;
45764;SDS011;31474;45.332;10.230;2023-02-28T09:11:00;6.18;;;4.32;;
45764;SDS011;31474;45.332;10.230;2023-02-28T09:13:26;9.40;;;4.35;;
45764;SDS011;31474;45.332;10.230;2023-02-28T09:15:53;6.32;;;4.68;;
45764;SDS011;31474;45.332;10.230;2023-02-28T09:18:19;7.15;;;5.07;;
45764;SDS011;31474;45.332;10.230;2023-02-28T09:20:45;7.10;;;4.60;;
45764;SDS011;31474;45.332;10.230;2023-02-28T09:23:11;7.15;;;4.53;;
45764;SDS011;31474;45.332;10.230;2023-02-28T09:25:40;8.80;;;5.72;;
45764;SDS011;31474;45.332;10.230;2023-02-28T09:28:15;6.28;;;4.80;;
45764;SDS011;31474;45.332;10.230;2023-02-28T09:30:43;9.65;;;5.03;;
45764;SDS011;31474;45.332;10.230;2023-02-28T09:33:11;7.30;;;4.80;;
45764;SDS011;31474;45.332;10.230;2023-02-28T09:35:37;7.32;;;4.85;;
45764;SDS011;31474;45.332;10.230;2023-02-28T09:38:03;7.35;;;5.10;;
45764;SDS011;31474;45.332;10.230;2023-02-28T09:40:29;6.50;;;4.35;;
45764;SDS011;31474;45.332;10.230;2023-02-28T09:42:56;8.60;;;4.93;;
45764;SDS011;31474;45.332;10.230;2023-02-28T09:45:27;6.07;;;4.40;;
45764;SDS011;31474;45.332;10.230;2023-02-28T09:48:10;7.85;;;4.85;;
45764;SDS011;31474;45.332;10.230;2023-02-28T09:50:42;7.45;;;5.07;;
45764;SDS011;31474;45.332;10.230;2023-02-28T09:53:22;8.32;;;5.00;;
45764;SDS011;31474;45.332;10.230;2023-02-28T09:56:15;7.07;;;4.65;;
45764;SDS011;31474;45.332;10.230;2023-02-28T09:58:54;8.93;;;4.65;;
45764;SDS011;31474;45.332;10.230;2023-02-28T10:01:44;8.90;;;4.78;;
45764;SDS011;31474;45.332;10.230;2023-02-28T10:04:38;8.63;;;5.50;;
45764;SDS011;31474;45.332;10.230;2023-02-28T10:07:35;9.07;;;5.53;;
45764;SDS011;31474;45.332;10.230;2023-02-28T10:10:03;8.25;;;5.05;;
45764;SDS011;31474;45.332;10.230;2023-02-28T10:12:33;7.57;;;4.90;;
45764;SDS011;31474;45.332;10.230;2023-02-28T10:15:04;6.93;;;5.00;;
45764;SDS011;31474;45.332;10.230;2023-02-28T10:17:36;8.90;;;5.07;;
45764;SDS011;31474;45.332;10.230;2023-02-28T10:20:12;8.07;;;5.28;;
45764;SDS011;31474;45.332;10.230;2023-02-28T10:23:02;7.57;;;5.22;;
45764;SDS011;31474;45.332;10.230;2023-02-28T10:25:37;7.85;;;6.22;;
45764;SDS011;31474;45.332;10.230;2023-02-28T10:28:14;8.90;;;6.70;;
45764;SDS011;31474;45.332;10.230;2023-02-28T10:30:45;8.18;;;5.97;;
45764;SDS011;31474;45.332;10.230;2023-02-28T10:33:18;9.63;;;6.47;;
45764;SDS011;31474;45.332;10.230;2023-02-28T10:35:49;8.95;;;6.57;;
45764;SDS011;31474;45.332;10.230;2023-02-28T10:38:17;11.55;;;7.30;;
45764;SDS011;31474;45.332;10.230;2023-02-28T10:40:53;13.00;;;7.03;;
45764;SDS011;31474;45.332;10.230;2023-02-28T10:43:40;7.45;;;5.38;;
45764;SDS011;31474;45.332;10.230;2023-02-28T10:48:37;7.45;;;5.50;;
45764;SDS011;31474;45.332;10.230;2023-02-28T10:51:12;11.32;;;6.82;;
45764;SDS011;31474;45.332;10.230;2023-02-28T10:53:45;10.25;;;5.60;;
45764;SDS011;31474;45.332;10.230;2023-02-28T10:56:16;9.50;;;6.53;;
45764;SDS011;31474;45.332;10.230;2023-02-28T10:58:50;7.45;;;6.18;;
45764;SDS011;31474;45.332;10.230;2023-02-28T11:01:35;15.63;;;8.93;;
45764;SDS011;31474;45.332;10.230;2023-02-28T11:06:58;9.50;;;6.60;;
45764;SDS011;31474;45.332;10.230;2023-02-28T11:09:32;9.45;;;6.50;;
45764;SDS011;31474;45.332;10.230;2023-02-28T11:12:00;10.93;;;6.40;;
45764;SDS011;31474;45.332;10.230;2023-02-28T11:14:33;15.05;;;8.90;;
45764;SDS011;31474;45.332;10.230;2023-02-28T11:17:14;21.58;;;11.85;;
45764;SDS011;31474;45.332;10.230;2023-02-28T11:19:48;9.50;;;7.10;;
45764;SDS011;31474;45.332;10.230;2023-02-28T11:22:18;9.73;;;6.57;;
45764;SDS011;31474;45.332;10.230;2023-02-28T11:24:51;9.98;;;6.60;;
45764;SDS011;31474;45.332;10.230;2023-02-28T11:29:56;12.68;;;6.50;;
45764;SDS011;31474;45.332;10.230;2023-02-28T11:32:24;11.55;;;6.97;;
45764;SDS011;31474;45.332;10.230;2023-02-28T11:35:04;10.65;;;6.68;;
45764;SDS011;31474;45.332;10.230;2023-02-28T11:37:36;8.35;;;6.38;;
45764;SDS011;31474;45.332;10.230;2023-02-28T11:40:05;8.93;;;7.00;;
45764;SDS011;31474;45.332;10.230;2023-02-28T11:42:42;11.10;;;7.57;;
45764;SDS011;31474;45.332;10.230;2023-02-28T11:48:01;11.00;;;7.65;;
45764;SDS011;31474;45.332;10.230;2023-02-28T11:55:57;9.23;;;7.00;;
45764;SDS011;31474;45.332;10.230;2023-02-28T12:01:49;10.20;;;6.75;;
45764;SDS011;31474;45.332;10.230;2023-02-28T12:07:47;11.13;;;7.03;;
45764;SDS011;31474;45.332;10.230;2023-02-28T12:10:26;13.40;;;7.07;;
45764;SDS011;31474;45.332;10.230;2023-02-28T12:13:01;10.07;;;6.45;;
45764;SDS011;31474;45.332;10.230;2023-02-28T12:21:44;12.65;;;7.25;;
45764;SDS011;31474;45.332;10.230;2023-02-28T12:27:15;13.00;;;7.82;;
45764;SDS011;31474;45.332;10.230;2023-02-28T12:29:54;9.73;;;6.88;;
45764;SDS011;31474;45.332;10.230;2023-02-28T12:32:41;15.20;;;10.57;;
45764;SDS011;31474;45.332;10.230;2023-02-28T12:35:12;13.52;;;8.70;;
45764;SDS011;31474;45.332;10.230;2023-02-28T12:37:46;10.88;;;7.75;;
45764;SDS011;31474;45.332;10.230;2023-02-28T12:40:29;11.57;;;7.25;;
45764;SDS011;31474;45.332;10.230;2023-02-28T12:43:14;9.65;;;7.45;;
45764;SDS011;31474;45.332;10.230;2023-02-28T12:45:45;9.68;;;6.72;;
45764;SDS011;31474;45.332;10.230;2023-02-28T12:48:17;12.82;;;7.75;;
45764;SDS011;31474;45.332;10.230;2023-02-28T12:50:47;9.63;;;7.43;;
45764;SDS011;31474;45.332;10.230;2023-02-28T12:58:31;10.50;;;7.50;;
45764;SDS011;31474;45.332;10.230;2023-02-28T13:10:06;9.82;;;6.80;;
45764;SDS011;31474;45.332;10.230;2023-02-28T13:12:33;9.80;;;6.97;;
45764;SDS011;31474;45.332;10.230;2023-02-28T13:17:56;10.00;;;7.07;;
45764;SDS011;31474;45.332;10.230;2023-02-28T13:20:36;9.52;;;7.20;;
45764;SDS011;31474;45.332;10.230;2023-02-28T13:26:02;14.55;;;8.20;;
45764;SDS011;31474;45.332;10.230;2023-02-28T13:28:56;19.13;;;8.25;;
45764;SDS011;31474;45.332;10.230;2023-02-28T13:31:24;14.05;;;7.07;;
45764;SDS011;31474;45.332;10.230;2023-02-28T13:47:22;10.85;;;7.40;;
45764;SDS011;31474;45.332;10.230;2023-02-28T14:04:00;11.30;;;7.45;;
45764;SDS011;31474;45.332;10.230;2023-02-28T14:06:17;10.95;;;7.60;;
45764;SDS011;31474;45.332;10.230;2023-02-28T14:08:57;10.88;;;7.97;;
45764;SDS011;31474;45.332;10.230;2023-02-28T14:11:37;12.90;;;6.63;;
45764;SDS011;31474;45.332;10.230;2023-02-28T14:14:06;12.57;;;7.72;;
45764;SDS011;31474;45.332;10.230;2023-02-28T14:16:45;11.60;;;7.70;;
45764;SDS011;31474;45.332;10.230;2023-02-28T14:19:24;11.75;;;8.02;;
45764;SDS011;31474;45.332;10.230;2023-02-28T14:33:21;10.73;;;7.88;;
45764;SDS011;31474;45.332;10.230;2023-02-28T14:36:04;11.82;;;7.00;;
45764;SDS011;31474;45.332;10.230;2023-02-28T14:41:45;10.88;;;7.68;;
45764;SDS011;31474;45.332;10.230;2023-02-28T14:44:18;12.15;;;7.88;;
45764;SDS011;31474;45.332;10.230;2023-02-28T14:46:45;11.48;;;7.53;;
45764;SDS011;31474;45.332;10.230;2023-02-28T14:52:12;12.27;;;6.90;;
45764;SDS011;31474;45.332;10.230;2023-02-28T14:54:45;14.80;;;8.02;;
45764;SDS011;31474;45.332;10.230;2023-02-28T14:57:29;16.08;;;9.38;;
45764;SDS011;31474;45.332;10.230;2023-02-28T15:00:04;11.75;;;8.65;;
45764;SDS011;31474;45.332;10.230;2023-02-28T15:02:45;11.95;;;8.10;;
45764;SDS011;31474;45.332;10.230;2023-02-28T15:07:45;12.63;;;8.73;;
45764;SDS011;31474;45.332;10.230;2023-02-28T15:10:17;15.00;;;8.85;;
45764;SDS011;31474;45.332;10.230;2023-02-28T15:12:53;12.63;;;8.80;;
45764;SDS011;31474;45.332;10.230;2023-02-28T15:15:33;14.52;;;10.57;;
45764;SDS011;31474;45.332;10.230;2023-02-28T15:18:31;18.95;;;11.70;;
45764;SDS011;31474;45.332;10.230;2023-02-28T15:21:15;19.77;;;12.85;;
45764;SDS011;31474;45.332;10.230;2023-02-28T15:23:46;16.40;;;11.20;;
45764;SDS011;31474;45.332;10.230;2023-02-28T15:26:27;14.35;;;10.35;;
45764;SDS011;31474;45.332;10.230;2023-02-28T15:29:14;17.33;;;10.95;;
45764;SDS011;31474;45.332;10.230;2023-02-28T15:32:06;13.23;;;9.25;;
45764;SDS011;31474;45.332;10.230;2023-02-28T15:42:35;14.45;;;9.38;;
45764;SDS011;31474;45.332;10.230;2023-02-28T15:45:00;12.32;;;7.60;;
45764;SDS011;31474;45.332;10.230;2023-02-28T15:47:27;13.23;;;9.27;;
45764;SDS011;31474;45.332;10.230;2023-02-28T15:50:02;14.02;;;8.85;;
45764;SDS011;31474;45.332;10.230;2023-02-28T15:52:42;14.68;;;10.10;;
45764;SDS011;31474;45.332;10.230;2023-02-28T15:55:10;13.77;;;10.32;;
45764;SDS011;31474;45.332;10.230;2023-02-28T15:57:44;20.67;;;12.32;;
45764;SDS011;31474;45.332;10.230;2023-02-28T16:00:13;16.23;;;11.43;;
45764;SDS011;31474;45.332;10.230;2023-02-28T16:02:40;17.85;;;11.77;;
45764;SDS011;31474;45.332;10.230;2023-02-28T16:07:35;19.90;;;13.25;;
45764;SDS011;31474;45.332;10.230;2023-02-28T16:10:03;24.23;;;14.25;;
45764;SDS011;31474;45.332;10.230;2023-02-28T16:12:31;16.80;;;10.13;;
45764;SDS011;31474;45.332;10.230;2023-02-28T16:15:00;19.15;;;10.30;;
45764;SDS011;31474;45.332;10.230;2023-02-28T16:17:37;18.05;;;10.30;;
45764;SDS011;31474;45.332;10.230;2023-02-28T16:20:14;23.05;;;13.38;;
45764;SDS011;31474;45.332;10.230;2023-02-28T16:22:41;17.35;;;11.90;;
45764;SDS011;31474;45.332;10.230;2023-02-28T16:25:11;22.25;;;14.20;;
45764;SDS011;31474;45.332;10.230;2023-02-28T16:27:38;24.55;;;15.27;;
45764;SDS011;31474;45.332;10.230;2023-02-28T16:30:04;21.65;;;13.10;;
45764;SDS011;31474;45.332;10.230;2023-02-28T16:32:32;20.65;;;11.50;;
45764;SDS011;31474;45.332;10.230;2023-02-28T16:35:00;19.00;;;11.00;;
45764;SDS011;31474;45.332;10.230;2023-02-28T16:37:26;22.58;;;11.93;;
45764;SDS011;31474;45.332;10.230;2023-02-28T16:39:53;17.10;;;9.43;;
45764;SDS011;31474;45.332;10.230;2023-02-28T16:42:25;18.70;;;10.57;;
45764;SDS011;31474;45.332;10.230;2023-02-28T16:44:53;20.65;;;11.80;;
45764;SDS011;31474;45.332;10.230;2023-02-28T16:47:20;15.98;;;12.32;;
45764;SDS011;31474;45.332;10.230;2023-02-28T16:49:46;19.40;;;11.23;;
45764;SDS011;31474;45.332;10.230;2023-02-28T16:52:12;16.90;;;11.27;;
45764;SDS011;31474;45.332;10.230;2023-02-28T16:54:39;18.08;;;12.05;;
45764;SDS011;31474;45.332;10.230;2023-02-28T16:57:05;19.83;;;11.65;;
45764;SDS011;31474;45.332;10.230;2023-02-28T16:59:40;20.60;;;12.35;;
45764;SDS011;31474;45.332;10.230;2023-02-28T17:02:12;23.80;;;13.38;;
45764;SDS011;31474;45.332;10.230;2023-02-28T17:04:39;19.13;;;14.15;;
45764;SDS011;31474;45.332;10.230;2023-02-28T17:07:08;18.52;;;13.63;;
45764;SDS011;31474;45.332;10.230;2023-02-28T17:09:37;17.17;;;13.48;;
45764;SDS011;31474;45.332;10.230;2023-02-28T17:12:03;27.05;;;16.40;;